Flight Track Log - Related Links

Times and Time Zones

All times are in EDT time to prevent confusion due to time zone crossing. See the PDT4522 flight status page for this flight to view local times or setup timezone preferences in your user account.

Time Position Orientation Groundspeed Altitude Reporting Facility
EDT Latitude Longitude Course Direction KTS MPH feet Rate Location/Type
Tue 05:08:58 PM 40.7972 -77.7533 105° East 252 290 5,100  Level New York Center
Tue 05:09:58 PM 40.7825 -77.6806 105° East 230 265 6,200 1,091 Climbing New York Center
Tue 05:10:59 PM 40.7681 -77.6106 105° East 210 242 7,300 1,041 Climbing New York Center
Tue 05:11:59 PM 40.7511 -77.5403 108° East 205 236 8,300 942 Climbing New York Center
Tue 05:13:00 PM 40.7347 -77.4619 105° East 211 243 9,200 915 Climbing New York Center
Tue 05:13:57 PM 40.7186 -77.3783 104° East 216 249 10,100 915 Climbing New York Center
Tue 05:14:58 PM 40.7028 -77.2892 103° East 227 261 11,000 446 Climbing New York Center
Tue 05:15:58 PM 40.6806 -77.1967 108° East 240 276 11,000 50 Level New York Center
Tue 05:16:59 PM 40.6547 -77.0986 109° East 273 314 11,100 50 Climbing New York Center
Tue 05:17:59 PM 40.6328 -76.9981 106° East 279 321 11,100  Level New York Center
Tue 05:19:00 PM 40.6131 -76.8978 104° East 279 321 11,100  Level New York Center
Tue 05:19:57 PM 40.5950 -76.8058 104° East 279 321 11,100 -50 Level New York Center
Tue 05:20:59 PM 40.5792 -76.7033 101° East 284 327 11,000 -49 Descending New York Center
Tue 05:21:59 PM 40.5556 -76.5947 106° East 284 327 11,000  Level New York Center
Tue 05:23:00 PM 40.5153 -76.5203 125° Southeast 279 321 11,000  Level New York Center
Tue 05:24:00 PM 40.4714 -76.4403 126° Southeast 273 314 11,000  Level New York Center
Tue 05:24:58 PM 40.4189 -76.3569 130° Southeast 266 306 11,000  Level New York Center
Tue 05:26:00 PM 40.3692 -76.2806 130° Southeast 264 304 11,000  Level FAA TRACON SMA TRACON (SMA)
Tue 05:26:20 PM 40.3567 -76.2544 122° Southeast 261 300 11,000  Level FAA TRACON SMA TRACON (SMA)
Tue 05:26:40 PM 40.3433 -76.2317 128° Southeast 259 298 11,000  Level FAA TRACON SMA TRACON (SMA)
Tue 05:27:00 PM 40.3294 -76.2033 123° Southeast 258 297 11,000  Level FAA TRACON SMA TRACON (SMA)
Tue 05:27:20 PM 40.3131 -76.1806 133° Southeast 256 295 11,000  Level FAA TRACON SMA TRACON (SMA)
Tue 05:27:40 PM 40.3003 -76.1575 126° Southeast 256 295 11,000  Level FAA TRACON SMA TRACON (SMA)
Tue 05:28:00 PM 40.2844 -76.1306 128° Southeast 256 295 11,000  Level FAA TRACON SMA TRACON (SMA)
Tue 05:28:20 PM 40.2717 -76.1044 123° Southeast 256 295 11,000  Level FAA TRACON SMA TRACON (SMA)
Tue 05:28:40 PM 40.2603 -76.0800 121° Southeast 256 295 11,000 -150 Level FAA TRACON SMA TRACON (SMA)
Tue 05:29:00 PM 40.2472 -76.0503 120° Southeast 257 296 10,900 -1,200 Descending FAA TRACON SMA TRACON (SMA)
Tue 05:29:20 PM 40.2353 -76.0231 120° Southeast 261 300 10,200 -2,000 Descending FAA TRACON SMA TRACON (SMA)
Tue 05:29:39 PM 40.2228 -75.9969 122° Southeast 268 308 9,600 -2,000 Descending FAA TRACON SMA TRACON (SMA)
Tue 05:29:59 PM 40.2058 -75.9656 125° Southeast 272 313 8,900 -2,100 Descending FAA TRACON SMA TRACON (SMA)
Tue 05:30:19 PM 40.1919 -75.9411 127° Southeast 273 314 8,200 -1,950 Descending FAA TRACON SMA TRACON (SMA)
Tue 05:30:39 PM 40.1781 -75.9161 126° Southeast 273 314 7,600 -1,650 Descending FAA TRACON SMA TRACON (SMA)
Tue 05:30:59 PM 40.1611 -75.8853 126° Southeast 272 313 7,100 -1,050 Descending FAA TRACON SMA TRACON (SMA)
Tue 05:31:19 PM 40.1478 -75.8608 126° Southeast 270 311 6,900 -750 Descending FAA TRACON SMA TRACON (SMA)
Tue 05:31:39 PM 40.1353 -75.8364 124° Southeast 266 306 6,600 -1,050 Descending FAA TRACON SMA TRACON (SMA)
Tue 05:31:59 PM 40.1208 -75.8072 123° Southeast 255 293 6,200 -878 Descending FAA TRACON SMA TRACON (SMA)
Tue 05:32:20 PM 40.1167 -75.7800 101° East 251 289 6,000 -293 Descending FAA TRACON SMA TRACON (SMA)
Tue 05:32:40 PM 40.1164 -75.7533 91° East 240 276 6,000  Level FAA TRACON SMA TRACON (SMA)
Tue 05:33:00 PM 40.1164 -75.7183 90° East 247 284 6,000  Level FAA TRACON SMA TRACON (SMA)
Tue 05:33:20 PM 40.1161 -75.6897 91° East 246 283 6,000  Level FAA TRACON SMA TRACON (SMA)
Tue 05:33:40 PM 40.1158 -75.6633 91° East 245 282 6,000  Level FAA TRACON SMA TRACON (SMA)
Tue 05:34:00 PM 40.1164 -75.6289 89° East 247 284 6,000  Level FAA TRACON SMA TRACON (SMA)
Tue 05:34:20 PM 40.1125 -75.6014 100° East 250 288 6,000  Level FAA TRACON SMA TRACON (SMA)
Tue 05:34:40 PM 40.1089 -75.5736 100° East 250 288 6,000  Level FAA TRACON SMA TRACON (SMA)
Tue 05:35:00 PM 40.1039 -75.5400 101° East 251 289 6,000  Level FAA TRACON SMA TRACON (SMA)
Tue 05:35:20 PM 40.0997 -75.5122 101° East 251 289 6,000  Level FAA TRACON SMA TRACON (SMA)
Tue 05:35:40 PM 40.0956 -75.4847 101° East 248 285 6,000  Level FAA TRACON SMA TRACON (SMA)
Tue 05:36:00 PM 40.0908 -75.4506 100° East 247 284 6,000  Level FAA TRACON SMA TRACON (SMA)
Tue 05:36:40 PM 40.0828 -75.3958 101° East 249 287 6,000  Level FAA TRACON SMA TRACON (SMA)
Tue 05:37:00 PM 40.0775 -75.3625 102° East 248 285 6,000  Level FAA TRACON SMA TRACON (SMA)
Tue 05:37:20 PM 40.0736 -75.3364 101° East 249 287 6,000  Level FAA TRACON SMA TRACON (SMA)
Tue 05:37:40 PM 40.0694 -75.3072 101° East 248 285 6,000  Level FAA TRACON SMA TRACON (SMA)
Tue 05:38:00 PM 40.0658 -75.2797 100° East 248 285 6,000  Level FAA TRACON SMA TRACON (SMA)
Tue 05:38:20 PM 40.0611 -75.2464 100° East 248 285 6,000  Level FAA TRACON SMA TRACON (SMA)
Tue 05:38:40 PM 40.0564 -75.2186 103° East 247 284 6,000  Level FAA TRACON SMA TRACON (SMA)
Tue 05:39:00 PM 40.0447 -75.2022 133° Southeast 234 269 6,000  Level FAA TRACON SMA TRACON (SMA)
Tue 05:39:20 PM 40.0219 -75.1869 153° Southeast 228 262 6,000  Level FAA TRACON SMA TRACON (SMA)
Tue 05:39:40 PM 40.0022 -75.1756 156° South 226 260 6,000  Level FAA TRACON SMA TRACON (SMA)
Tue 05:40:00 PM 39.9889 -75.1569 133° Southeast 235 270 6,000  Level FAA TRACON SMA TRACON (SMA)
Tue 05:40:20 PM 39.9869 -75.1272 95° East 241 277 6,000 -300 Level FAA TRACON SMA TRACON (SMA)
Tue 05:40:40 PM 39.9925 -75.0997 75° East 235 270 5,800 -750 Descending FAA TRACON SMA TRACON (SMA)
Tue 05:41:00 PM 39.9975 -75.0758 75° East 234 269 5,500 -1,200 Descending FAA TRACON SMA TRACON (SMA)
Tue 05:41:20 PM 40.0047 -75.0464 72° East 230 265 5,000 -1,350 Descending FAA TRACON SMA TRACON (SMA)
Tue 05:41:40 PM 40.0108 -75.0189 74° East 230 265 4,600 -1,200 Descending FAA TRACON SMA TRACON (SMA)
Tue 05:42:00 PM 40.0167 -74.9936 73° East 234 269 4,200 -900 Descending FAA TRACON SMA TRACON (SMA)
Tue 05:42:20 PM 40.0172 -74.9622 89° East 221 254 4,000 -300 Descending FAA TRACON SMA TRACON (SMA)
Tue 05:42:40 PM 40.0061 -74.9458 132° Southeast 195 224 4,000  Level FAA TRACON SMA TRACON (SMA)
Tue 05:43:00 PM 39.9947 -74.9342 142° Southeast 189 217 4,000 -150 Level FAA TRACON SMA TRACON (SMA)
Tue 05:43:20 PM 39.9783 -74.9239 154° Southeast 178 205 3,900 -750 Descending FAA TRACON SMA TRACON (SMA)
Tue 05:43:40 PM 39.9597 -74.9328 200° South 190 219 3,500 -1,200 Descending FAA TRACON SMA TRACON (SMA)
Tue 05:44:00 PM 39.9497 -74.9497 232° Southwest 194 223 3,100 -1,050 Descending FAA TRACON SMA TRACON (SMA)
Tue 05:44:20 PM 39.9400 -74.9700 238° Southwest 185 213 2,800 -750 Descending FAA TRACON SMA TRACON (SMA)
Tue 05:44:40 PM 39.9328 -74.9894 244° Southwest 178 205 2,600 -450 Descending FAA TRACON SMA TRACON (SMA)
Tue 05:45:00 PM 39.9275 -75.0067 248° West 167 192 2,500 -450 Descending FAA TRACON SMA TRACON (SMA)
Tue 05:45:20 PM 39.9214 -75.0242 246° West 170 196 2,300 -450 Descending FAA TRACON SMA TRACON (SMA)
Tue 05:45:40 PM 39.9150 -75.0461 249° West 168 193 2,200 -450 Descending FAA TRACON SMA TRACON (SMA)
Tue 05:46:00 PM 39.9103 -75.0642 251° West 170 196 2,000 -600 Descending FAA TRACON SMA TRACON (SMA)
Tue 05:46:20 PM 39.9056 -75.0831 252° West 174 200 1,800 -450 Descending FAA TRACON SMA TRACON (SMA)
Tue 05:46:40 PM 39.9006 -75.1058 254° West 175 201 1,700 -300 Descending FAA TRACON SMA TRACON (SMA)
Tue 05:47:00 PM 39.8972 -75.1250 257° West 172 198 1,600 -450 Descending FAA TRACON SMA TRACON (SMA)
Tue 05:47:20 PM 39.8936 -75.1428 255° West 168 193 1,400 -750 Descending FAA TRACON SMA TRACON (SMA)
Tue 05:47:40 PM 39.8897 -75.1611 255° West 133 153 1,100 -750 Descending FAA TRACON SMA TRACON (SMA)
Tue 05:48:00 PM 39.8867 -75.1742 253° West 123 142 900 -750 Descending FAA TRACON SMA TRACON (SMA)
Tue 05:48:20 PM 39.8836 -75.1856 251° West 111 128 600 -750 Descending FAA TRACON SMA TRACON (SMA)
Tue 05:48:40 PM 39.8797 -75.2003 251° West 110 127 400 -600 Descending FAA TRACON SMA TRACON (SMA)
Tue 05:49:00 PM 39.8772 -75.2125 255° West 111 128 200 -450 Descending FAA TRACON SMA TRACON (SMA)
Tue 05:49:20 PM 39.8767 -75.2153 255° West 111 128 100 -300 Descending FAA TRACON SMA TRACON (SMA)
Tue 05:51:00 PM 39.8667 -75.2333 169° South  Level FlightAware Approximate

Login

Don't have an account? Register now (free) for customized features, flight alerts, and more!